Terminal Aerodrome Forecast
Issued by NWS

Current Version | Previous Version | Text Only | Print | Product List | Glossary On
Versions: 1 2 3 4 5 6 7 8 9 10 11 12 13 14 15 16 17 18 19 20 21
000 FTUS41 KGYX 180520 TAFPSM TAF KPSM 180520Z 1806/1906 27010KT P6SM BKN040 OVC070 FM180800 30008KT P6SM -SHRASN OVC035 FM181400 29010G18KT P6SM BKN050 FM182100 29009KT P6SM SCT050 BKN100=

USA.gov is the U.S. government's official web portal to all federal, state and local government web resources and services.